createdAt,value
2023-05-25T00:04:48.656Z,5.90
2023-05-25T00:09:51.928Z,3.17
2023-05-25T00:14:55.229Z,5.77
2023-05-25T00:20:09.552Z,3.17
2023-05-25T00:25:12.823Z,2.33
2023-05-25T00:30:16.425Z,6.07
2023-05-25T00:35:21.232Z,4.97
2023-05-25T00:40:24.666Z,5.50
2023-05-25T00:45:27.941Z,2.23
2023-05-25T00:50:39.059Z,3.70
2023-05-25T00:55:46.462Z,5.60
2023-05-25T01:00:50.730Z,3.73
2023-05-25T01:05:56.209Z,2.20
2023-05-25T01:11:00.162Z,2.57
2023-05-25T01:16:03.676Z,3.70
2023-05-25T01:21:14.233Z,4.20
2023-05-25T01:26:18.581Z,2.80
2023-05-25T01:31:23.258Z,6.40
2023-05-25T01:36:27.985Z,2.73
2023-05-25T01:41:32.064Z,5.90
2023-05-25T01:46:38.883Z,2.43
2023-05-25T01:51:49.298Z,3.23
2023-05-25T01:56:53.875Z,5.20
2023-05-25T02:01:57.663Z,3.57
2023-05-25T02:07:02.356Z,3.30
2023-05-25T02:12:06.444Z,10.83
2023-05-25T02:17:09.753Z,8.73
2023-05-25T02:22:14.574Z,2.73
2023-05-25T02:27:18.108Z,2.87
2023-05-25T02:32:21.642Z,7.07
2023-05-25T02:37:26.641Z,3.90
2023-05-25T02:42:30.025Z,5.23
2023-05-25T02:47:34.758Z,3.03
2023-05-25T02:52:40.037Z,3.60
2023-05-25T02:57:43.352Z,4.00
2023-05-25T03:02:50.073Z,2.57
2023-05-25T03:07:56.992Z,6.80
2023-05-25T03:13:00.616Z,2.73
2023-05-25T03:18:04.017Z,9.37
2023-05-25T03:23:12.674Z,5.80
2023-05-25T03:28:16.300Z,6.33
2023-05-25T03:33:20.236Z,2.50
2023-05-25T03:38:26.953Z,8.67
2023-05-25T03:43:30.562Z,2.37
2023-05-25T03:48:33.976Z,3.47
2023-05-25T03:53:39.530Z,6.03
2023-05-25T03:58:44.624Z,4.23
2023-05-25T04:03:48.607Z,3.30
2023-05-25T04:08:53.830Z,3.00
2023-05-25T04:13:57.758Z,3.73
2023-05-25T04:19:03.936Z,2.67
2023-05-25T04:24:09.754Z,3.30
2023-05-25T04:29:13.704Z,3.13
2023-05-25T04:34:26.816Z,4.10
2023-05-25T04:39:40.123Z,5.70
2023-05-25T04:44:43.540Z,4.30
2023-05-25T04:49:46.957Z,3.33
2023-05-25T04:54:51.786Z,6.53
2023-05-25T04:59:55.343Z,6.20
2023-05-25T05:04:59.153Z,7.93
2023-05-25T05:10:04.571Z,4.30
2023-05-25T05:15:09.786Z,3.73
2023-05-25T05:20:14.982Z,7.20
2023-05-25T05:25:20.365Z,4.20
2023-05-25T05:30:24.412Z,3.27
2023-05-25T05:35:27.705Z,5.87
2023-05-25T05:40:42.879Z,8.17
2023-05-25T05:45:46.551Z,5.83
2023-05-25T05:50:50.262Z,5.80
2023-05-25T05:55:59.193Z,9.50
2023-05-25T06:01:03.532Z,5.90
2023-05-25T06:06:07.903Z,6.57
2023-05-25T06:11:13.181Z,8.33
2023-05-25T06:16:16.775Z,7.27
2023-05-25T06:21:20.289Z,5.57
2023-05-25T06:26:26.034Z,5.93
2023-05-25T06:31:29.638Z,11.10
2023-05-25T06:36:33.029Z,10.80
2023-05-25T06:41:40.659Z,19.63
2023-05-25T06:46:44.314Z,23.00
2023-05-25T06:51:49.113Z,21.57
2023-05-25T06:56:53.733Z,24.27
2023-05-25T07:01:59.090Z,18.90
2023-05-25T07:07:02.509Z,19.63
2023-05-25T07:12:08.951Z,23.47
2023-05-25T07:17:12.624Z,30.00
2023-05-25T07:22:17.054Z,12.90
2023-05-25T07:27:21.887Z,17.60
2023-05-25T07:32:25.222Z,25.10
2023-05-25T07:37:28.495Z,17.43
2023-05-25T07:42:34.461Z,22.30
2023-05-25T07:47:37.842Z,19.23
2023-05-25T07:52:41.199Z,21.17
2023-05-25T07:57:45.800Z,15.63
2023-05-25T08:02:49.194Z,15.37
2023-05-25T08:07:52.472Z,14.53
2023-05-25T08:12:58.848Z,14.60
2023-05-25T08:18:04.541Z,19.57
2023-05-25T08:23:08.383Z,13.40
2023-05-25T08:28:13.035Z,14.30
2023-05-25T08:33:16.242Z,11.30
2023-05-25T08:38:19.511Z,14.63
2023-05-25T08:43:24.204Z,8.50
2023-05-25T08:48:39.905Z,15.33
2023-05-25T08:53:44.970Z,17.00
2023-05-25T08:58:53.892Z,11.57
2023-05-25T09:03:58.251Z,11.83
2023-05-25T09:09:01.503Z,11.57
2023-05-25T09:14:06.290Z,8.80
2023-05-25T09:19:09.827Z,15.93
2023-05-25T09:24:13.157Z,12.60
2023-05-25T09:29:18.008Z,15.30
2023-05-25T09:34:21.380Z,14.20
2023-05-25T09:39:24.826Z,7.70
2023-05-25T09:44:30.196Z,10.40
2023-05-25T09:49:33.816Z,11.87
2023-05-25T09:54:38.280Z,10.57
2023-05-25T09:59:43.174Z,7.27
2023-05-25T10:04:46.609Z,7.20
2023-05-25T10:09:53.530Z,12.80
2023-05-25T10:14:59.592Z,7.70
2023-05-25T10:20:05.544Z,14.90
2023-05-25T10:25:11.744Z,9.20
2023-05-25T10:30:16.814Z,5.63
2023-05-25T10:35:21.100Z,9.40
2023-05-25T10:40:25.252Z,8.50
2023-05-25T10:45:29.959Z,8.07
2023-05-25T10:50:36.778Z,8.93
2023-05-25T10:55:44.457Z,5.87
2023-05-25T11:01:00.843Z,5.90
2023-05-25T11:06:04.306Z,7.47
2023-05-25T11:11:07.845Z,10.03
2023-05-25T11:16:20.132Z,6.97
2023-05-25T11:21:40.719Z,8.60
2023-05-25T11:26:58.534Z,12.80
2023-05-25T11:32:03.618Z,6.07
2023-05-25T11:37:06.929Z,6.37
2023-05-25T11:42:11.478Z,7.30
2023-05-25T11:47:18.954Z,13.70
2023-05-25T11:52:23.232Z,4.50
2023-05-25T11:57:26.720Z,8.00
2023-05-25T12:02:38.949Z,12.97
2023-05-25T12:07:44.848Z,11.57
2023-05-25T12:12:51.219Z,6.73
2023-05-25T12:17:56.191Z,5.53
2023-05-25T12:22:59.688Z,8.37
2023-05-25T12:28:12.703Z,7.30
2023-05-25T12:33:17.417Z,4.93
2023-05-25T12:38:21.852Z,5.70
2023-05-25T12:43:25.348Z,4.87
2023-05-25T12:48:30.110Z,6.40
2023-05-25T12:58:37.127Z,5.60
2023-05-25T13:03:41.877Z,6.10
2023-05-25T13:08:46.860Z,8.33
2023-05-25T13:13:53.412Z,5.03
2023-05-25T13:18:58.300Z,3.03
2023-05-25T13:24:01.842Z,4.97
2023-05-25T13:29:05.185Z,4.53
2023-05-25T13:34:10.038Z,4.83
2023-05-25T13:39:14.707Z,8.13
2023-05-25T13:44:18.003Z,7.37
2023-05-25T13:49:23.669Z,5.37
2023-05-25T13:54:28.021Z,3.50
2023-05-25T13:59:31.491Z,14.23
2023-05-25T14:04:36.876Z,6.43
2023-05-25T14:09:40.187Z,9.27
2023-05-25T14:14:43.588Z,6.27
2023-05-25T14:19:48.205Z,4.67
2023-05-25T14:24:52.577Z,5.03
2023-05-25T14:29:55.727Z,5.70
2023-05-25T14:35:00.490Z,3.73
2023-05-25T14:40:04.582Z,6.00
2023-05-25T14:45:11.095Z,11.33
2023-05-25T14:50:16.822Z,6.03
2023-05-25T14:55:20.111Z,4.73
2023-05-25T15:00:23.515Z,7.77
2023-05-25T15:05:28.287Z,6.30
2023-05-25T15:10:31.745Z,8.37
2023-05-25T15:15:35.055Z,11.93
2023-05-25T15:20:39.837Z,5.40
2023-05-25T15:25:43.474Z,6.77
2023-05-25T15:30:46.880Z,14.97
2023-05-25T15:35:51.509Z,5.90
2023-05-25T15:40:54.772Z,5.97
2023-05-25T15:45:58.010Z,6.47
2023-05-25T15:51:02.790Z,8.70
2023-05-25T15:56:06.359Z,9.17
2023-05-25T16:01:11.820Z,9.43
2023-05-25T16:06:17.920Z,7.17
2023-05-25T16:11:21.257Z,5.73
2023-05-25T16:16:25.305Z,7.57
2023-05-25T16:21:30.554Z,13.77
2023-05-25T16:26:34.500Z,10.53
2023-05-25T16:31:38.105Z,5.30
2023-05-25T16:36:42.947Z,11.93
2023-05-25T16:41:46.398Z,13.40
2023-05-25T16:46:50.351Z,6.50
2023-05-25T16:51:55.097Z,6.00
2023-05-25T16:56:58.421Z,7.50
2023-05-25T17:02:02.089Z,8.20
2023-05-25T17:07:07.618Z,3.53
2023-05-25T17:12:11.159Z,9.03
2023-05-25T17:17:15.136Z,9.70
2023-05-25T17:22:20.017Z,7.70
2023-05-25T17:27:23.446Z,3.50
2023-05-25T17:32:27.338Z,7.43
2023-05-25T17:37:32.316Z,6.30
2023-05-25T17:42:35.612Z,12.40
2023-05-25T17:47:38.869Z,9.27
2023-05-25T17:52:43.736Z,8.37
2023-05-25T17:57:47.164Z,7.47
2023-05-25T18:02:51.964Z,9.73
2023-05-25T18:07:56.764Z,3.93
2023-05-25T18:12:59.997Z,5.90
2023-05-25T18:18:03.887Z,5.47
2023-05-25T18:23:09.311Z,8.00
2023-05-25T18:28:14.864Z,8.70
2023-05-25T18:33:18.321Z,7.30
2023-05-25T18:38:23.000Z,16.40
2023-05-25T18:43:26.990Z,6.53
2023-05-25T18:48:30.739Z,4.53
2023-05-25T18:53:35.479Z,4.17
2023-05-25T18:58:38.781Z,5.43
2023-05-25T19:03:42.271Z,5.33
2023-05-25T19:08:47.035Z,9.30
2023-05-25T19:13:50.313Z,7.00
2023-05-25T19:18:53.640Z,3.90
2023-05-25T19:23:58.978Z,3.70
2023-05-25T19:29:02.407Z,6.60
2023-05-25T19:34:06.278Z,6.40
2023-05-25T19:39:10.954Z,4.97
2023-05-25T19:44:15.492Z,4.30
2023-05-25T19:49:19.106Z,4.33
2023-05-25T19:54:23.928Z,11.33
2023-05-25T19:59:30.273Z,17.70
2023-05-25T20:04:34.192Z,21.50
2023-05-25T20:09:39.260Z,9.40
2023-05-25T20:14:43.737Z,6.93
2023-05-25T20:19:47.878Z,5.27
2023-05-25T20:24:54.972Z,6.13
2023-05-25T20:29:58.973Z,4.47
2023-05-25T20:35:03.140Z,6.73
2023-05-25T20:40:09.733Z,4.67
2023-05-25T20:45:13.606Z,7.87
2023-05-25T20:50:17.301Z,5.40
2023-05-25T20:55:22.115Z,7.33
2023-05-25T21:00:25.436Z,8.63
2023-05-25T21:05:29.174Z,7.33
2023-05-25T21:10:34.733Z,9.47
2023-05-25T21:15:38.100Z,9.70
2023-05-25T21:20:41.942Z,10.77
2023-05-25T21:25:47.315Z,7.70
2023-05-25T21:30:51.088Z,7.57
2023-05-25T21:35:54.477Z,10.70
2023-05-25T21:40:59.578Z,7.47
2023-05-25T21:46:02.715Z,9.60
2023-05-25T21:51:05.980Z,8.20
2023-05-25T21:56:10.693Z,9.43
2023-05-25T22:01:14.055Z,10.20
2023-05-25T22:06:17.492Z,7.60
2023-05-25T22:11:22.261Z,6.67
2023-05-25T22:16:25.674Z,10.10
2023-05-25T22:21:29.009Z,7.30
2023-05-25T22:26:33.680Z,12.27
2023-05-25T22:31:37.242Z,14.27
2023-05-25T22:36:40.557Z,10.07
2023-05-25T22:41:45.320Z,9.37
2023-05-25T22:46:48.743Z,13.20
2023-05-25T22:51:52.189Z,11.30
2023-05-25T22:56:56.787Z,7.40
2023-05-25T23:02:00.167Z,12.83
2023-05-25T23:07:03.564Z,8.17
2023-05-25T23:12:08.590Z,8.47
2023-05-25T23:17:12.016Z,19.33
2023-05-25T23:22:15.223Z,9.27
2023-05-25T23:27:20.007Z,6.67
2023-05-25T23:32:23.259Z,6.70
2023-05-25T23:37:26.909Z,7.57
2023-05-25T23:42:38.989Z,7.20
2023-05-25T23:47:42.223Z,6.57
2023-05-25T23:52:45.850Z,8.07
2023-05-25T23:57:50.572Z,10.00
